createdAt,value
2023-02-19T00:02:05.228Z,2.70
2023-02-19T00:04:50.611Z,3.17
2023-02-19T00:07:35.970Z,3.28
2023-02-19T00:10:21.509Z,2.40
2023-02-19T00:13:07.106Z,3.20
2023-02-19T00:15:52.649Z,2.58
2023-02-19T00:18:38.163Z,2.35
2023-02-19T00:21:24.356Z,2.50
2023-02-19T00:24:11.786Z,2.35
2023-02-19T00:26:56.992Z,2.13
2023-02-19T00:29:42.391Z,2.15
2023-02-19T00:32:27.821Z,3.00
2023-02-19T00:35:13.510Z,2.47
2023-02-19T00:37:58.913Z,2.75
2023-02-19T00:40:44.270Z,2.55
2023-02-19T00:43:29.876Z,2.08
2023-02-19T00:46:21.820Z,2.30
2023-02-19T00:49:08.701Z,1.95
2023-02-19T00:51:54.544Z,2.03
2023-02-19T00:54:40.012Z,2.85
2023-02-19T00:57:25.664Z,2.17
2023-02-19T01:00:13.209Z,2.28
2023-02-19T01:02:58.553Z,3.05
2023-02-19T01:05:44.479Z,2.75
2023-02-19T01:08:33.664Z,2.42
2023-02-19T01:11:20.494Z,2.47
2023-02-19T01:14:05.837Z,2.08
2023-02-19T01:16:51.352Z,2.75
2023-02-19T01:19:36.748Z,2.40
2023-02-19T01:22:22.233Z,2.22
2023-02-19T01:25:08.044Z,2.75
2023-02-19T01:27:54.015Z,2.78
2023-02-19T01:30:39.767Z,2.38
2023-02-19T01:33:25.742Z,2.50
2023-02-19T01:36:11.832Z,2.47
2023-02-19T01:39:00.392Z,2.47
2023-02-19T01:41:46.162Z,2.35
2023-02-19T01:44:31.701Z,2.08
2023-02-19T01:47:19.429Z,2.17
2023-02-19T01:50:05.312Z,2.35
2023-02-19T01:52:51.046Z,2.20
2023-02-19T01:55:37.317Z,1.98
2023-02-19T01:58:25.748Z,2.33
2023-02-19T02:01:11.848Z,2.38
2023-02-19T02:03:58.016Z,1.92
2023-02-19T02:06:54.755Z,2.30
2023-02-19T02:09:58.760Z,2.20
2023-02-19T02:12:44.156Z,2.35
2023-02-19T02:15:49.776Z,2.45
2023-02-19T02:18:57.057Z,2.10
2023-02-19T02:22:05.852Z,2.05
2023-02-19T02:25:29.323Z,2.85
2023-02-19T02:28:47.376Z,2.70
2023-02-19T02:31:42.655Z,1.90
2023-02-19T02:34:37.680Z,2.05
2023-02-19T02:37:25.804Z,1.92
2023-02-19T02:40:12.761Z,3.50
2023-02-19T02:43:00.825Z,2.40
2023-02-19T02:45:46.858Z,2.28
2023-02-19T02:48:54.026Z,2.17
2023-02-19T02:51:45.000Z,2.53
2023-02-19T02:54:54.837Z,1.90
2023-02-19T02:57:41.415Z,2.17
2023-02-19T03:00:48.031Z,1.98
2023-02-19T03:03:38.240Z,2.60
2023-02-19T03:06:25.792Z,2.35
2023-02-19T03:09:30.135Z,2.58
2023-02-19T03:12:38.055Z,2.28
2023-02-19T03:15:46.290Z,4.15
2023-02-19T03:18:55.548Z,1.95
2023-02-19T03:21:43.702Z,1.73
2023-02-19T03:24:54.458Z,2.13
2023-02-19T03:27:42.920Z,2.40
2023-02-19T03:30:40.110Z,2.15
2023-02-19T03:33:29.186Z,2.15
2023-02-19T03:36:15.748Z,2.80
2023-02-19T03:39:05.030Z,2.20
2023-02-19T03:42:09.122Z,1.92
2023-02-19T03:44:54.777Z,2.17
2023-02-19T03:48:06.295Z,1.70
2023-02-19T03:51:08.177Z,1.92
2023-02-19T03:54:12.433Z,2.28
2023-02-19T03:57:14.229Z,2.55
2023-02-19T04:00:05.711Z,2.28
2023-02-19T04:03:20.878Z,2.50
2023-02-19T04:06:14.087Z,1.90
2023-02-19T04:09:04.204Z,2.22
2023-02-19T04:11:53.217Z,2.35
2023-02-19T04:14:46.887Z,2.00
2023-02-19T04:17:35.969Z,2.10
2023-02-19T04:20:23.430Z,2.28
2023-02-19T04:23:09.468Z,2.30
2023-02-19T04:26:01.186Z,3.13
2023-02-19T04:28:46.958Z,2.42
2023-02-19T04:31:35.349Z,2.15
2023-02-19T04:34:20.836Z,3.13
2023-02-19T04:37:07.018Z,2.70
2023-02-19T04:39:52.543Z,2.22
2023-02-19T04:42:38.285Z,2.50
2023-02-19T04:45:24.015Z,2.13
2023-02-19T04:48:09.654Z,3.25
2023-02-19T04:50:55.338Z,1.80
2023-02-19T04:53:40.744Z,1.90
2023-02-19T04:56:26.303Z,1.63
2023-02-19T04:59:12.789Z,2.53
2023-02-19T05:01:58.254Z,2.22
2023-02-19T05:04:43.885Z,1.90
2023-02-19T05:07:29.273Z,1.67
2023-02-19T05:10:14.751Z,1.60
2023-02-19T05:13:00.410Z,2.05
2023-02-19T05:15:58.146Z,1.90
2023-02-19T05:18:45.767Z,1.70
2023-02-19T05:21:31.427Z,1.80
2023-02-19T05:24:17.012Z,1.70
2023-02-19T05:27:02.679Z,2.95
2023-02-19T05:29:48.053Z,1.88
2023-02-19T05:32:36.202Z,2.22
2023-02-19T05:35:21.774Z,2.13
2023-02-19T05:38:08.061Z,2.30
2023-02-19T05:40:53.516Z,2.05
2023-02-19T05:43:40.451Z,2.03
2023-02-19T05:46:29.724Z,2.45
2023-02-19T05:49:15.308Z,2.70
2023-02-19T05:52:00.784Z,2.53
2023-02-19T05:54:46.312Z,2.20
2023-02-19T05:57:31.880Z,2.55
2023-02-19T06:00:19.686Z,2.30
2023-02-19T06:03:05.211Z,2.33
2023-02-19T06:05:51.005Z,2.97
2023-02-19T06:08:38.253Z,2.95
2023-02-19T06:11:24.342Z,2.78
2023-02-19T06:14:12.955Z,2.00
2023-02-19T06:16:58.530Z,2.60
2023-02-19T06:19:44.369Z,2.53
2023-02-19T06:22:30.197Z,2.75
2023-02-19T06:25:15.744Z,2.92
2023-02-19T06:28:01.269Z,3.58
2023-02-19T06:30:46.717Z,3.33
2023-02-19T06:33:32.950Z,3.13
2023-02-19T06:36:20.829Z,3.60
2023-02-19T06:39:06.510Z,3.45
2023-02-19T06:41:51.795Z,3.60
2023-02-19T06:44:37.375Z,3.85
2023-02-19T06:47:25.392Z,4.05
2023-02-19T06:50:10.992Z,3.28
2023-02-19T06:52:56.508Z,3.30
2023-02-19T06:55:42.297Z,3.22
2023-02-19T06:58:28.378Z,3.75
2023-02-19T07:01:15.426Z,2.72
2023-02-19T07:04:01.737Z,2.92
2023-02-19T07:06:47.698Z,2.88
2023-02-19T07:09:33.024Z,2.80
2023-02-19T07:12:18.630Z,3.05
2023-02-19T07:15:04.217Z,3.03
2023-02-19T07:17:49.894Z,3.08
2023-02-19T07:20:35.553Z,2.80
2023-02-19T07:23:21.082Z,4.40
2023-02-19T07:26:12.992Z,2.83
2023-02-19T07:28:58.790Z,3.00
2023-02-19T07:31:44.392Z,2.67
2023-02-19T07:34:30.144Z,2.65
2023-02-19T07:37:15.752Z,2.97
2023-02-19T07:40:01.291Z,2.80
2023-02-19T07:42:46.901Z,2.75
2023-02-19T07:45:32.501Z,2.65
2023-02-19T07:48:18.793Z,3.08
2023-02-19T07:51:06.147Z,2.83
2023-02-19T07:53:51.969Z,3.38
2023-02-19T07:56:37.517Z,3.10
2023-02-19T07:59:23.202Z,2.72
2023-02-19T08:02:36.043Z,2.90
2023-02-19T08:05:21.717Z,2.67
2023-02-19T08:08:09.381Z,4.93
2023-02-19T08:11:13.100Z,3.35
2023-02-19T08:13:58.984Z,3.22
2023-02-19T08:16:51.909Z,3.40
2023-02-19T08:19:37.411Z,3.80
2023-02-19T08:22:23.028Z,3.38
2023-02-19T08:25:08.752Z,3.78
2023-02-19T08:27:54.485Z,2.90
2023-02-19T08:30:42.084Z,2.65
2023-02-19T08:33:28.680Z,2.58
2023-02-19T08:36:14.042Z,2.70
2023-02-19T08:38:59.780Z,2.42
2023-02-19T08:41:45.554Z,2.47
2023-02-19T08:44:32.229Z,2.10
2023-02-19T08:47:17.612Z,2.40
2023-02-19T08:50:05.022Z,3.30
2023-02-19T08:52:50.535Z,2.70
2023-02-19T08:55:38.368Z,2.90
2023-02-19T08:58:26.240Z,2.53
2023-02-19T09:01:18.460Z,2.08
2023-02-19T09:04:04.440Z,2.40
2023-02-19T09:06:50.222Z,2.05
2023-02-19T09:09:38.072Z,1.90
2023-02-19T09:12:24.710Z,2.30
2023-02-19T09:15:10.679Z,2.10
2023-02-19T09:17:56.145Z,4.43
2023-02-19T09:20:41.641Z,2.08
2023-02-19T09:23:27.236Z,2.17
2023-02-19T09:26:14.019Z,1.95
2023-02-19T09:28:59.820Z,1.90
2023-02-19T09:31:45.706Z,1.75
2023-02-19T09:34:31.007Z,1.67
2023-02-19T09:37:16.471Z,1.98
2023-02-19T09:40:02.005Z,1.50
2023-02-19T09:42:48.944Z,1.55
2023-02-19T09:45:35.926Z,1.98
2023-02-19T09:48:21.690Z,1.65
2023-02-19T09:51:10.482Z,1.85
2023-02-19T09:53:57.891Z,2.55
2023-02-19T09:56:43.436Z,1.30
2023-02-19T09:59:41.151Z,1.23
2023-02-19T10:02:27.826Z,1.70
2023-02-19T10:05:15.452Z,0.95
2023-02-19T10:08:07.124Z,0.75
2023-02-19T10:10:54.748Z,0.60
2023-02-19T10:13:53.511Z,0.82
2023-02-19T10:16:42.102Z,0.93
2023-02-19T10:19:27.880Z,0.50
2023-02-19T10:22:13.823Z,0.70
2023-02-19T10:24:59.459Z,1.38
2023-02-19T10:27:44.814Z,0.85
2023-02-19T10:30:35.629Z,1.20
2023-02-19T10:33:22.567Z,1.30
2023-02-19T10:36:16.170Z,0.70
2023-02-19T10:39:07.660Z,0.80
2023-02-19T10:41:56.792Z,1.10
2023-02-19T10:44:45.675Z,0.70
2023-02-19T10:47:33.083Z,1.48
2023-02-19T10:50:39.377Z,0.60
2023-02-19T10:53:46.120Z,1.70
2023-02-19T10:56:33.659Z,0.60
2023-02-19T10:59:26.441Z,1.13
2023-02-19T11:02:22.010Z,0.65
2023-02-19T11:05:16.818Z,0.57
2023-02-19T11:08:02.429Z,0.60
2023-02-19T11:10:48.997Z,0.80
2023-02-19T11:13:38.055Z,1.05
2023-02-19T11:16:36.246Z,0.80
2023-02-19T11:19:42.537Z,1.40
2023-02-19T11:22:32.385Z,1.60
2023-02-19T11:25:19.429Z,1.13
2023-02-19T11:28:31.409Z,2.08
2023-02-19T11:31:20.192Z,0.88
2023-02-19T11:34:14.905Z,1.08
2023-02-19T11:37:18.122Z,1.50
2023-02-19T11:40:05.272Z,0.93
2023-02-19T11:43:02.323Z,1.38
2023-02-19T11:46:09.674Z,0.85
2023-02-19T11:49:14.180Z,1.95
2023-02-19T11:52:21.856Z,1.10
2023-02-19T11:55:13.632Z,1.83
2023-02-19T11:58:47.543Z,2.63
2023-02-19T12:02:02.631Z,1.65
2023-02-19T12:05:06.518Z,0.88
2023-02-19T12:08:08.592Z,1.50
2023-02-19T12:11:39.625Z,1.52
2023-02-19T12:14:37.528Z,1.55
2023-02-19T12:17:41.491Z,1.63
2023-02-19T12:20:42.223Z,1.40
2023-02-19T12:23:58.364Z,2.28
2023-02-19T12:26:56.176Z,2.55
2023-02-19T12:30:03.412Z,1.50
2023-02-19T12:33:13.338Z,2.80
2023-02-19T12:36:12.689Z,3.10
2023-02-19T12:39:22.797Z,2.95
2023-02-19T12:42:08.508Z,3.80
2023-02-19T12:45:17.002Z,3.65
2023-02-19T12:48:34.463Z,4.70
2023-02-19T12:51:43.141Z,2.72
2023-02-19T12:54:38.753Z,2.42
2023-02-19T12:57:32.812Z,2.15
2023-02-19T13:00:18.276Z,1.52
2023-02-19T13:03:20.921Z,3.30
2023-02-19T13:06:26.346Z,2.88
2023-02-19T13:09:23.650Z,2.95
2023-02-19T13:12:21.447Z,2.05
2023-02-19T13:15:24.260Z,2.00
2023-02-19T13:18:26.116Z,2.65
2023-02-19T13:21:35.338Z,2.05
2023-02-19T13:24:28.649Z,1.17
2023-02-19T13:28:10.057Z,2.05
2023-02-19T13:31:21.918Z,1.73
2023-02-19T13:34:17.180Z,3.20
2023-02-19T13:37:03.503Z,2.10
2023-02-19T13:39:54.444Z,2.47
2023-02-19T13:42:40.041Z,3.20
2023-02-19T13:45:33.814Z,3.95
2023-02-19T13:48:37.913Z,3.17
2023-02-19T13:51:29.371Z,4.47
2023-02-19T13:54:25.621Z,2.70
2023-02-19T13:57:23.657Z,3.85
2023-02-19T14:00:49.440Z,7.50
2023-02-19T14:04:01.395Z,3.00
2023-02-19T14:07:05.580Z,2.30
2023-02-19T14:09:51.075Z,3.40
2023-02-19T14:12:37.479Z,4.90
2023-02-19T14:15:43.331Z,2.65
2023-02-19T14:18:45.361Z,2.15
2023-02-19T14:21:40.153Z,2.05
2023-02-19T14:24:25.984Z,2.95
2023-02-19T14:27:11.949Z,2.60
2023-02-19T14:29:58.432Z,1.85
2023-02-19T14:32:47.445Z,1.63
2023-02-19T14:35:41.239Z,4.03
2023-02-19T14:38:38.116Z,1.95
2023-02-19T14:41:24.704Z,2.83
2023-02-19T14:44:31.170Z,3.72
2023-02-19T14:47:22.879Z,5.55
2023-02-19T14:50:15.921Z,4.60
2023-02-19T14:53:05.087Z,3.38
2023-02-19T14:55:52.734Z,1.90
2023-02-19T14:58:40.587Z,2.35
2023-02-19T15:01:27.623Z,2.15
2023-02-19T15:04:25.311Z,2.03
2023-02-19T15:07:16.650Z,3.40
2023-02-19T15:10:05.789Z,2.25
2023-02-19T15:12:54.618Z,4.10
2023-02-19T15:15:44.842Z,4.88
2023-02-19T15:21:28.653Z,2.50
2023-02-19T15:24:16.754Z,3.15
2023-02-19T15:27:03.290Z,2.90
2023-02-19T15:29:53.289Z,1.77
2023-02-19T15:32:39.126Z,6.15
2023-02-19T15:35:26.786Z,2.17
2023-02-19T15:38:12.755Z,2.15
2023-02-19T15:40:58.659Z,3.08
2023-02-19T15:43:53.773Z,2.00
2023-02-19T15:46:41.688Z,3.90
2023-02-19T15:49:38.014Z,3.15
2023-02-19T15:52:59.371Z,2.63
2023-02-19T15:56:04.230Z,3.70
2023-02-19T15:58:55.049Z,2.10
2023-02-19T16:01:41.257Z,4.57
2023-02-19T16:04:27.442Z,3.05
2023-02-19T16:07:29.011Z,2.08
2023-02-19T16:10:25.030Z,3.13
2023-02-19T16:13:12.206Z,2.55
2023-02-19T16:16:03.707Z,3.65
2023-02-19T16:18:51.257Z,2.33
2023-02-19T16:21:37.454Z,3.28
2023-02-19T16:24:25.817Z,3.45
2023-02-19T16:27:14.067Z,3.53
2023-02-19T16:30:07.155Z,3.20
2023-02-19T16:33:20.955Z,3.28
2023-02-19T16:36:37.289Z,3.78
2023-02-19T16:39:23.650Z,4.57
2023-02-19T16:42:11.595Z,3.40
2023-02-19T16:44:56.967Z,2.53
2023-02-19T16:47:48.201Z,3.50
2023-02-19T16:50:33.600Z,3.63
2023-02-19T16:53:25.255Z,5.05
2023-02-19T16:56:18.570Z,4.25
2023-02-19T16:59:05.099Z,4.18
2023-02-19T17:01:50.919Z,3.95
2023-02-19T17:04:36.425Z,3.92
2023-02-19T17:07:22.920Z,3.45
2023-02-19T17:10:15.838Z,3.97
2023-02-19T17:13:01.649Z,3.95
2023-02-19T17:15:47.266Z,3.17
2023-02-19T17:18:32.655Z,3.22
2023-02-19T17:21:21.040Z,4.32
2023-02-19T17:24:06.751Z,3.90
2023-02-19T17:26:52.720Z,3.70
2023-02-19T17:29:39.392Z,3.63
2023-02-19T17:32:25.285Z,3.35
2023-02-19T17:35:11.177Z,3.67
2023-02-19T17:37:56.860Z,5.15
2023-02-19T17:40:42.771Z,6.63
2023-02-19T17:43:28.615Z,5.40
2023-02-19T17:46:15.891Z,4.30
2023-02-19T17:49:01.447Z,5.85
2023-02-19T17:51:46.956Z,6.75
2023-02-19T17:54:32.410Z,4.63
2023-02-19T17:57:17.914Z,6.13
2023-02-19T18:00:05.059Z,7.43
2023-02-19T18:02:58.661Z,4.90
2023-02-19T18:05:44.734Z,6.60
2023-02-19T18:08:30.778Z,10.13
2023-02-19T18:11:17.147Z,8.45
2023-02-19T18:14:02.957Z,7.88
2023-02-19T18:16:50.430Z,4.40
2023-02-19T18:19:35.957Z,5.30
2023-02-19T18:22:21.538Z,4.47
2023-02-19T18:25:07.097Z,5.82
2023-02-19T18:27:53.220Z,4.90
2023-02-19T18:30:39.142Z,5.90
2023-02-19T18:33:24.722Z,4.18
2023-02-19T18:36:11.918Z,4.53
2023-02-19T18:38:57.494Z,4.07
2023-02-19T18:41:48.244Z,4.63
2023-02-19T18:44:33.767Z,4.90
2023-02-19T18:47:21.504Z,2.95
2023-02-19T18:50:08.575Z,5.10
2023-02-19T18:52:54.100Z,4.82
2023-02-19T18:55:39.729Z,5.65
2023-02-19T18:58:25.888Z,4.78
2023-02-19T19:01:13.913Z,4.72
2023-02-19T19:03:59.872Z,5.03
2023-02-19T19:06:45.727Z,6.25
2023-02-19T19:09:31.572Z,7.70
2023-02-19T19:12:17.606Z,6.65
2023-02-19T19:15:03.670Z,6.28
2023-02-19T19:17:50.034Z,5.40
2023-02-19T19:20:35.865Z,7.25
2023-02-19T19:23:21.437Z,6.47
2023-02-19T19:26:07.544Z,7.43
2023-02-19T19:28:53.097Z,7.22
2023-02-19T19:31:38.728Z,9.10
2023-02-19T19:34:24.485Z,9.23
2023-02-19T19:37:10.935Z,10.35
2023-02-19T19:39:57.039Z,13.93
2023-02-19T19:42:44.506Z,7.88
2023-02-19T19:45:30.241Z,9.10
2023-02-19T19:48:15.851Z,8.18
2023-02-19T19:51:01.345Z,8.70
2023-02-19T19:53:48.423Z,10.27
2023-02-19T19:56:41.109Z,11.43
2023-02-19T19:59:26.823Z,7.63
2023-02-19T20:02:13.226Z,6.05
2023-02-19T20:04:58.904Z,6.88
2023-02-19T20:07:45.399Z,6.03
2023-02-19T20:10:31.848Z,8.35
2023-02-19T20:13:19.480Z,7.45
2023-02-19T20:16:06.085Z,6.82
2023-02-19T20:18:52.232Z,6.57
2023-02-19T20:21:38.552Z,5.50
2023-02-19T20:24:31.008Z,6.20
2023-02-19T20:27:16.870Z,7.95
2023-02-19T20:30:03.799Z,7.57
2023-02-19T20:32:49.793Z,7.55
2023-02-19T20:35:35.837Z,8.43
2023-02-19T20:38:21.353Z,8.45
2023-02-19T20:41:06.936Z,7.05
2023-02-19T20:43:52.373Z,5.93
2023-02-19T20:46:46.691Z,6.45
2023-02-19T20:49:34.584Z,5.93
2023-02-19T20:52:21.805Z,5.40
2023-02-19T20:55:09.960Z,7.28
2023-02-19T20:57:55.521Z,6.05
2023-02-19T21:00:41.079Z,5.30
2023-02-19T21:03:26.688Z,7.78
2023-02-19T21:06:12.884Z,6.00
2023-02-19T21:08:58.630Z,6.90
2023-02-19T21:11:44.581Z,6.38
2023-02-19T21:14:31.656Z,7.80
2023-02-19T21:17:17.978Z,5.30
2023-02-19T21:20:04.398Z,7.10
2023-02-19T21:22:50.269Z,6.80
2023-02-19T21:25:36.234Z,5.93
2023-02-19T21:28:22.280Z,7.60
2023-02-19T21:31:08.052Z,6.82
2023-02-19T21:33:53.328Z,7.45
2023-02-19T21:36:39.178Z,7.60
2023-02-19T21:39:28.466Z,7.00
2023-02-19T21:42:14.074Z,6.05
2023-02-19T21:44:59.526Z,6.50
2023-02-19T21:47:47.716Z,6.45
2023-02-19T21:50:33.949Z,5.60
2023-02-19T21:53:19.705Z,8.02
2023-02-19T21:56:05.486Z,5.68
2023-02-19T21:58:51.076Z,5.90
2023-02-19T22:01:42.133Z,5.28
2023-02-19T22:04:28.105Z,4.72
2023-02-19T22:07:13.734Z,5.63
2023-02-19T22:09:59.050Z,5.25
2023-02-19T22:12:44.957Z,6.20
2023-02-19T22:15:30.693Z,6.97
2023-02-19T22:18:16.065Z,5.68
2023-02-19T22:21:02.826Z,4.20
2023-02-19T22:23:50.346Z,4.68
2023-02-19T22:26:36.853Z,5.40
2023-02-19T22:29:22.431Z,5.30
2023-02-19T22:32:08.181Z,5.25
2023-02-19T22:34:53.937Z,5.35
2023-02-19T22:37:40.051Z,4.65
2023-02-19T22:40:25.339Z,4.50
2023-02-19T22:43:11.028Z,5.13
2023-02-19T22:45:56.801Z,5.88
2023-02-19T22:48:43.209Z,5.65
2023-02-19T22:51:30.025Z,5.10
2023-02-19T22:54:16.151Z,5.78
2023-02-19T22:57:02.115Z,5.43
2023-02-19T22:59:48.402Z,7.57
2023-02-19T23:02:33.893Z,5.88
2023-02-19T23:05:20.118Z,8.10
2023-02-19T23:08:05.764Z,5.60
2023-02-19T23:10:51.562Z,5.30
2023-02-19T23:13:37.063Z,7.45
2023-02-19T23:16:23.403Z,6.53
2023-02-19T23:19:12.137Z,6.38
2023-02-19T23:21:57.364Z,5.60
2023-02-19T23:24:42.849Z,5.15
2023-02-19T23:27:28.576Z,7.28
2023-02-19T23:30:15.901Z,5.15
2023-02-19T23:33:02.099Z,6.18
2023-02-19T23:35:47.632Z,6.68
2023-02-19T23:38:33.963Z,6.03
2023-02-19T23:41:19.509Z,6.32
2023-02-19T23:44:05.845Z,5.07
2023-02-19T23:46:52.122Z,5.78
2023-02-19T23:49:37.788Z,5.03
2023-02-19T23:52:23.418Z,5.07
2023-02-19T23:55:09.126Z,4.70
2023-02-19T23:57:54.840Z,5.00
